サンパウロ/グアルーリョス の空港の天気 - METARとTAF

グアルーリョス国際空港 (サンパウロ) ( SBGR / GRU ) - ブラジル サンパウロ州サンパウロ市
飛行場実況気象(Metar)
観測時間04/25 04:00 BRT (04/25 07:00 UTC)
風向・風速南東 1m/s
視程10km以上
天気現象
全天の8割程度の雲 雲底高度 460m
気温21℃
湿度94%
気圧1020hPa
METARSBGR 250700Z 13002KT 9999 BKN015 21/20 Q1020
過去の天気等 Google飛行場航空写真 Wunderground天気予報

過去48時間のMETAR

飛行場予報(TAF)
発表時間: 4/24 23:20 BRT (4/25 02:20 UTC)
予報対象時間: 25日3時 BRT ~ 26日9時 BRT
風向・風速東 3m/s
視程9000m
全天の8割程度の雲 雲底高度 340m
25日6時 BRT から 確率 30% で
視程3000m
天気現象もや
全天の8割程度の雲 雲底高度 150m
25日10時 BRT ~ 25日12時 BRT に徐々に
風向・風速北東 3m/s
全天の4割程度の雲 雲底高度 1070m
25日14時 BRT ~ 25日16時 BRT に徐々に
風向・風速南南東 5m/s
全天の8割程度の雲 雲底高度 610m
25日16時 BRT から 確率 30% で
天気現象雷雨
全天の8割程度の雲 雲底高度 610m
少しの積乱雲 雲底高度 1220m
25日18時 BRT ~ 25日20時 BRT に徐々に
風向・風速東南東 3m/s
全天の8割程度の雲 雲底高度 340m
25日23時 BRT から 確率 40% で
風向・風速北東 3m/s
全天の4割程度の雲 雲底高度 270m
26日6時 BRT から 確率 30% で
視程800m
天気現象
全天の8割程度の雲 雲底高度 30m
TAF SBGR 250220Z 2506/2612 08005KT 9000 BKN011 TX29/2517Z TN18/2608Z
PROB30 2509/2511 3000 BR BKN005
BECMG 2513/2515 04005KT SCT035
BECMG 2517/2519 15010KT BKN020
PROB30 2519/2520 TSRA BKN020 FEW040CB
BECMG 2521/2523 11005KT BKN011
PROB40 2602/2608 05005KT SCT009
PROB30 2609/2611 0800 FG BKN001 RMK PHM